Terminal Aerodrome Forecast
Issued by NWS Wilmington, OH

Current Version | Previous Version | Graphics & Text | Print | Product List | Glossary On
Versions: 1 2 3 4 5 6 7 8 9 10 11 12 13 14 15 16 17 18 19 20 21 22 23 24 25 26
140
FTUS41 KILN 132327
TAFCVG
TAF
KCVG 132327Z 1400/1506 17003KT P6SM SKC
     FM140400 VRB04KT P6SM SKC
     FM140700 VRB03KT 5SM BR FEW250
     FM141200 VRB04KT 3SM BR BKN090
     FM141300 VRB04KT P6SM SCT090 BKN250
     FM141500 18008KT P6SM SCT100=

USA.gov is the U.S. government's official web portal to all federal, state and local government web resources and services.